createdAt,value
2017-08-20T00:00:16.730Z,3.93
2017-08-20T00:02:46.356Z,3.37
2017-08-20T00:05:16.286Z,4.10
2017-08-20T00:07:45.872Z,3.80
2017-08-20T00:10:15.390Z,3.90
2017-08-20T00:12:44.924Z,4.17
2017-08-20T00:15:14.963Z,4.63
2017-08-20T00:17:45.180Z,4.50
2017-08-20T00:20:14.740Z,3.90
2017-08-20T00:22:44.582Z,4.23
2017-08-20T00:25:14.206Z,4.03
2017-08-20T00:27:43.827Z,4.43
2017-08-20T00:30:13.686Z,4.47
2017-08-20T00:32:43.218Z,5.73
2017-08-20T00:35:12.726Z,4.70
2017-08-20T00:37:42.340Z,3.80
2017-08-20T00:40:11.872Z,4.63
2017-08-20T00:42:42.296Z,5.27
2017-08-20T00:45:11.811Z,4.47
2017-08-20T00:47:41.333Z,4.43
2017-08-20T00:50:10.870Z,4.33
2017-08-20T00:52:40.769Z,5.07
2017-08-20T00:55:10.813Z,4.70
2017-08-20T00:57:41.017Z,4.83
2017-08-20T01:00:10.605Z,5.60
2017-08-20T01:02:40.177Z,4.30
2017-08-20T01:05:09.702Z,4.67
2017-08-20T01:07:40.186Z,5.53
2017-08-20T01:10:09.715Z,5.07
2017-08-20T01:12:39.571Z,5.33
2017-08-20T01:15:09.138Z,4.97
2017-08-20T01:17:38.650Z,5.50
2017-08-20T01:20:08.188Z,5.37
2017-08-20T01:22:38.046Z,5.47
2017-08-20T01:25:07.570Z,5.10
2017-08-20T01:27:37.740Z,5.40
2017-08-20T01:30:07.794Z,5.47
2017-08-20T01:32:37.302Z,6.57
2017-08-20T01:35:07.295Z,5.70
2017-08-20T01:37:36.906Z,5.77
2017-08-20T01:40:06.386Z,6.77
2017-08-20T01:42:36.026Z,6.03
2017-08-20T01:45:05.748Z,6.20
2017-08-20T01:47:35.555Z,6.60
2017-08-20T01:50:05.089Z,6.53
2017-08-20T01:52:34.629Z,7.03
2017-08-20T01:55:04.158Z,6.57
2017-08-20T01:57:35.001Z,7.00
2017-08-20T02:00:04.810Z,6.77
2017-08-20T02:02:34.839Z,6.20
2017-08-20T02:05:04.374Z,5.10
2017-08-20T02:07:33.994Z,6.40
2017-08-20T02:10:03.491Z,6.20
2017-08-20T02:12:33.307Z,7.07
2017-08-20T02:15:02.818Z,6.70
2017-08-20T02:17:32.335Z,6.03
2017-08-20T02:20:02.251Z,6.80
2017-08-20T02:22:31.777Z,5.87
2017-08-20T02:25:01.607Z,6.07
2017-08-20T02:27:31.134Z,7.30
2017-08-20T02:30:01.811Z,6.63
2017-08-20T02:32:31.585Z,6.93
2017-08-20T02:35:01.118Z,7.23
2017-08-20T02:37:30.642Z,6.70
2017-08-20T02:40:01.498Z,6.87
2017-08-20T02:42:31.298Z,6.83
2017-08-20T02:45:01.575Z,7.43
2017-08-20T02:47:31.444Z,6.80
2017-08-20T02:50:00.979Z,7.10
2017-08-20T02:52:31.032Z,6.83
2017-08-20T02:55:01.363Z,7.13
2017-08-20T02:57:31.142Z,7.20
2017-08-20T03:00:00.979Z,6.40
2017-08-20T03:02:30.850Z,7.73
2017-08-20T03:05:00.377Z,8.30
2017-08-20T03:07:30.242Z,7.90
2017-08-20T03:10:00.059Z,8.10
2017-08-20T03:12:29.634Z,7.93
2017-08-20T03:14:59.135Z,8.47
2017-08-20T03:17:28.937Z,7.93
2017-08-20T03:19:58.466Z,8.57
2017-08-20T03:22:27.973Z,8.33
2017-08-20T03:24:57.889Z,8.07
2017-08-20T03:27:27.421Z,8.27
2017-08-20T03:29:57.373Z,8.47
2017-08-20T03:32:27.695Z,7.53
2017-08-20T03:34:58.165Z,8.27
2017-08-20T03:37:27.989Z,7.13
2017-08-20T03:39:57.586Z,8.63
2017-08-20T03:42:27.403Z,9.17
2017-08-20T03:44:57.039Z,7.70
2017-08-20T03:47:26.583Z,9.03
2017-08-20T03:49:56.481Z,7.30
2017-08-20T03:52:26.059Z,8.20
2017-08-20T03:54:55.593Z,8.30
2017-08-20T03:57:25.223Z,7.67
2017-08-20T03:59:55.258Z,8.03
2017-08-20T04:02:25.621Z,7.67
2017-08-20T04:04:55.662Z,8.47
2017-08-20T04:07:25.495Z,8.20
2017-08-20T04:09:55.154Z,8.70
2017-08-20T04:12:24.694Z,9.80
2017-08-20T04:14:54.619Z,8.83
2017-08-20T04:17:24.102Z,8.37
2017-08-20T04:19:54.032Z,7.20
2017-08-20T04:22:24.035Z,7.80
2017-08-20T04:24:53.567Z,8.87
2017-08-20T04:27:23.084Z,8.30
2017-08-20T04:29:53.136Z,7.97
2017-08-20T04:32:22.944Z,8.97
2017-08-20T04:34:52.653Z,8.13
2017-08-20T04:37:22.166Z,8.40
2017-08-20T04:39:51.694Z,8.43
2017-08-20T04:42:21.184Z,8.13
2017-08-20T04:44:51.069Z,8.37
2017-08-20T04:47:20.622Z,8.63
2017-08-20T04:49:50.169Z,7.47
2017-08-20T04:52:19.712Z,6.23
2017-08-20T04:54:49.230Z,6.80
2017-08-20T04:57:19.154Z,7.63
2017-08-20T04:59:48.665Z,7.77
2017-08-20T05:02:18.539Z,8.00
2017-08-20T05:04:48.061Z,8.40
2017-08-20T05:07:17.558Z,8.47
2017-08-20T05:09:48.329Z,6.90
2017-08-20T05:12:17.849Z,7.13
2017-08-20T05:14:47.351Z,7.03
2017-08-20T05:17:16.870Z,7.23
2017-08-20T05:19:47.109Z,7.00
2017-08-20T05:22:17.239Z,9.20
2017-08-20T05:24:46.753Z,6.70
2017-08-20T05:27:17.742Z,8.10
2017-08-20T05:29:47.277Z,7.10
2017-08-20T05:32:17.435Z,6.60
2017-08-20T05:34:47.275Z,7.20
2017-08-20T05:37:16.825Z,6.60
2017-08-20T05:39:46.704Z,7.90
2017-08-20T05:42:17.579Z,7.17
2017-08-20T05:44:47.361Z,6.97
2017-08-20T05:47:16.890Z,7.07
2017-08-20T05:49:46.923Z,7.57
2017-08-20T05:52:16.542Z,7.10
2017-08-20T05:54:46.057Z,6.60
2017-08-20T05:57:15.843Z,6.73
2017-08-20T05:59:45.256Z,7.93
2017-08-20T06:02:14.449Z,7.77
2017-08-20T06:04:43.578Z,7.23
2017-08-20T06:07:11.871Z,7.80
2017-08-20T06:09:40.942Z,6.30
2017-08-20T06:12:09.232Z,6.90
2017-08-20T06:14:37.568Z,7.23
2017-08-20T06:17:07.483Z,6.93
2017-08-20T06:19:36.623Z,7.00
2017-08-20T06:22:05.227Z,7.13
2017-08-20T06:24:33.546Z,8.00
2017-08-20T06:27:03.419Z,7.03
2017-08-20T06:29:31.754Z,6.70
2017-08-20T06:32:00.250Z,5.70
2017-08-20T06:34:28.878Z,6.47
2017-08-20T06:36:57.162Z,6.80
2017-08-20T06:39:25.806Z,6.00
2017-08-20T06:41:54.552Z,6.07
2017-08-20T06:44:23.475Z,5.60
2017-08-20T06:46:53.459Z,5.63
2017-08-20T06:49:21.736Z,6.10
2017-08-20T06:51:50.053Z,5.70
2017-08-20T06:54:19.537Z,5.10
2017-08-20T06:56:47.943Z,5.20
2017-08-20T06:59:17.835Z,5.03
2017-08-20T07:01:46.915Z,5.00
2017-08-20T07:04:15.317Z,4.87
2017-08-20T07:06:44.530Z,4.73
2017-08-20T07:09:13.144Z,5.07
2017-08-20T07:11:42.522Z,4.20
2017-08-20T07:14:12.210Z,4.67
2017-08-20T07:16:41.666Z,5.50
2017-08-20T07:19:11.610Z,4.40
2017-08-20T07:21:40.670Z,4.40
2017-08-20T07:24:09.052Z,4.23
2017-08-20T07:26:37.351Z,3.77
2017-08-20T07:29:06.427Z,4.03
2017-08-20T07:31:34.738Z,3.57
2017-08-20T07:34:03.820Z,3.90
2017-08-20T07:36:32.906Z,3.50
2017-08-20T07:39:01.218Z,3.33
2017-08-20T07:41:29.742Z,2.33
2017-08-20T07:44:00.751Z,3.53
2017-08-20T07:46:29.071Z,3.30
2017-08-20T07:48:57.699Z,3.70
2017-08-20T07:51:26.698Z,3.60
2017-08-20T07:53:55.482Z,3.30
2017-08-20T07:56:23.822Z,2.30
2017-08-20T07:58:52.727Z,3.27
2017-08-20T08:01:21.294Z,2.60
2017-08-20T08:03:49.566Z,3.43
2017-08-20T08:06:17.867Z,3.13
2017-08-20T08:08:46.144Z,2.87
2017-08-20T08:11:14.449Z,3.10
2017-08-20T08:13:43.162Z,2.70
2017-08-20T08:16:11.647Z,3.00
2017-08-20T08:18:40.007Z,4.30
2017-08-20T08:21:08.435Z,3.30
2017-08-20T08:23:37.389Z,3.17
2017-08-20T08:26:07.619Z,3.70
2017-08-20T08:28:36.666Z,4.43
2017-08-20T08:31:05.490Z,3.53
2017-08-20T08:33:35.743Z,3.87
2017-08-20T08:36:04.554Z,4.00
2017-08-20T08:38:33.128Z,4.40
2017-08-20T08:41:02.199Z,3.60
2017-08-20T08:43:30.520Z,2.70
2017-08-20T08:45:59.690Z,3.43
2017-08-20T08:48:27.955Z,3.67
2017-08-20T08:50:58.227Z,3.60
2017-08-20T08:53:27.637Z,3.70
2017-08-20T08:55:55.903Z,3.90
2017-08-20T08:58:24.519Z,3.53
2017-08-20T09:00:52.822Z,3.60
2017-08-20T09:03:22.730Z,3.13
2017-08-20T09:05:52.523Z,4.77
2017-08-20T09:08:20.871Z,3.60
2017-08-20T09:10:49.468Z,5.30
2017-08-20T09:13:19.524Z,3.67
2017-08-20T09:15:47.832Z,3.40
2017-08-20T09:18:17.176Z,3.63
2017-08-20T09:20:45.461Z,3.83
2017-08-20T09:23:14.044Z,3.27
2017-08-20T09:25:42.403Z,3.40
2017-08-20T09:28:11.777Z,2.90
2017-08-20T09:30:40.343Z,2.90
2017-08-20T09:33:09.989Z,2.30
2017-08-20T09:35:38.659Z,3.10
2017-08-20T09:38:07.338Z,3.00
2017-08-20T09:40:35.627Z,2.60
2017-08-20T09:43:03.930Z,3.20
2017-08-20T09:45:33.328Z,2.60
2017-08-20T09:48:01.634Z,2.90
2017-08-20T09:50:30.629Z,3.43
2017-08-20T09:52:58.954Z,2.60
2017-08-20T09:55:28.602Z,3.00
2017-08-20T09:57:59.308Z,2.77
2017-08-20T10:00:27.627Z,2.60
2017-08-20T10:02:56.006Z,2.63
2017-08-20T10:05:25.103Z,2.77
2017-08-20T10:07:53.695Z,3.00
2017-08-20T10:10:22.584Z,3.40
2017-08-20T10:12:50.871Z,2.77
2017-08-20T10:15:20.221Z,2.00
2017-08-20T10:17:50.389Z,2.40
2017-08-20T10:20:19.856Z,2.40
2017-08-20T10:22:48.136Z,2.73
2017-08-20T10:25:16.780Z,2.10
2017-08-20T10:27:46.210Z,2.50
2017-08-20T10:30:14.553Z,2.47
2017-08-20T10:32:42.869Z,2.40
2017-08-20T10:35:12.406Z,2.53
2017-08-20T10:37:40.973Z,1.90
2017-08-20T10:40:09.290Z,2.67
2017-08-20T10:42:38.654Z,2.63
2017-08-20T10:45:07.725Z,2.57
2017-08-20T10:47:36.062Z,2.33
2017-08-20T10:50:04.599Z,2.57
2017-08-20T10:52:33.032Z,2.20
2017-08-20T10:55:02.185Z,2.27
2017-08-20T10:57:30.783Z,2.20
2017-08-20T11:00:00.799Z,1.70
2017-08-20T11:02:29.127Z,1.70
2017-08-20T11:04:58.077Z,1.83
2017-08-20T11:07:26.361Z,2.10
2017-08-20T11:09:55.043Z,2.00
2017-08-20T11:12:24.197Z,1.87
2017-08-20T11:14:52.511Z,1.50
2017-08-20T11:17:21.717Z,1.77
2017-08-20T11:19:52.679Z,1.93
2017-08-20T11:22:20.977Z,1.70
2017-08-20T11:24:50.126Z,1.70
2017-08-20T11:27:18.414Z,2.00
2017-08-20T11:29:46.819Z,1.80
2017-08-20T11:32:15.506Z,1.50
2017-08-20T11:34:44.390Z,1.37
2017-08-20T11:37:12.691Z,1.40
2017-08-20T11:39:42.722Z,1.50
2017-08-20T11:42:12.839Z,1.63
2017-08-20T11:44:41.210Z,1.47
2017-08-20T11:47:09.803Z,1.27
2017-08-20T11:49:39.244Z,1.30
2017-08-20T11:52:07.528Z,1.33
2017-08-20T11:54:37.520Z,1.73
2017-08-20T11:57:05.680Z,1.57
2017-08-20T11:59:35.464Z,1.57
2017-08-20T12:02:03.806Z,1.57
2017-08-20T12:04:32.988Z,1.47
2017-08-20T12:07:01.599Z,1.93
2017-08-20T12:09:31.623Z,1.20
2017-08-20T12:12:01.403Z,1.33
2017-08-20T12:14:29.792Z,1.10
2017-08-20T12:16:58.103Z,1.30
2017-08-20T12:19:26.484Z,1.97
2017-08-20T12:21:55.572Z,1.70
2017-08-20T12:24:24.250Z,1.77
2017-08-20T12:26:52.580Z,1.70
2017-08-20T12:29:21.634Z,2.17
2017-08-20T12:31:49.989Z,1.90
2017-08-20T12:34:18.838Z,2.00
2017-08-20T12:36:47.412Z,2.20
2017-08-20T12:39:16.377Z,2.33
2017-08-20T12:41:44.639Z,2.10
2017-08-20T12:44:13.266Z,2.30
2017-08-20T12:46:41.653Z,2.13
2017-08-20T12:49:11.288Z,2.10
2017-08-20T12:51:40.984Z,1.73
2017-08-20T12:54:09.288Z,1.60
2017-08-20T12:56:38.730Z,1.33
2017-08-20T12:59:08.863Z,1.40
2017-08-20T13:01:37.191Z,2.47
2017-08-20T13:04:05.502Z,2.13
2017-08-20T13:06:34.121Z,1.50
2017-08-20T13:09:02.447Z,1.67
2017-08-20T13:11:31.035Z,1.43
2017-08-20T13:13:59.389Z,1.57
2017-08-20T13:16:28.730Z,1.87
2017-08-20T13:18:57.862Z,1.40
2017-08-20T13:21:26.605Z,1.50
2017-08-20T13:23:56.103Z,1.63
2017-08-20T13:26:26.043Z,1.83
2017-08-20T13:28:55.126Z,1.50
2017-08-20T13:31:23.507Z,2.10
2017-08-20T13:33:53.184Z,2.50
2017-08-20T13:36:22.096Z,1.53
2017-08-20T13:38:51.928Z,1.83
2017-08-20T13:41:20.244Z,1.30
2017-08-20T13:43:50.155Z,2.03
2017-08-20T13:46:18.456Z,2.13
2017-08-20T13:48:47.002Z,2.23
2017-08-20T13:51:15.587Z,1.80
2017-08-20T13:53:43.917Z,1.97
2017-08-20T13:56:14.407Z,2.03
2017-08-20T13:58:44.362Z,2.70
2017-08-20T14:01:12.742Z,2.00
2017-08-20T14:03:41.082Z,1.70
2017-08-20T14:06:09.686Z,1.90
2017-08-20T14:08:38.975Z,1.90
2017-08-20T14:11:08.626Z,1.63
2017-08-20T14:13:37.078Z,2.10
2017-08-20T14:16:05.401Z,2.20
2017-08-20T14:18:34.028Z,1.90
2017-08-20T14:21:02.644Z,1.90
2017-08-20T14:23:30.957Z,2.30
2017-08-20T14:26:00.110Z,2.37
2017-08-20T14:28:28.661Z,2.20
2017-08-20T14:30:58.230Z,2.20
2017-08-20T14:33:29.486Z,1.97
2017-08-20T14:35:58.420Z,2.20
2017-08-20T14:38:26.701Z,2.00
2017-08-20T14:40:55.026Z,2.20
2017-08-20T14:43:23.371Z,2.03
2017-08-20T14:45:52.012Z,1.90
2017-08-20T14:48:20.300Z,2.33
2017-08-20T14:50:48.626Z,2.30
2017-08-20T14:53:16.980Z,2.17
2017-08-20T14:55:46.056Z,3.40
2017-08-20T14:58:15.570Z,2.43
2017-08-20T15:00:46.036Z,2.80
2017-08-20T15:03:15.925Z,2.20
2017-08-20T15:05:44.351Z,2.30
2017-08-20T15:08:12.637Z,2.10
2017-08-20T15:10:41.268Z,1.70
2017-08-20T15:13:09.597Z,1.80
2017-08-20T15:15:38.416Z,2.03
2017-08-20T15:18:06.829Z,2.43
2017-08-20T15:20:35.209Z,1.90
2017-08-20T15:23:05.355Z,2.10
2017-08-20T15:25:33.643Z,1.93
2017-08-20T15:28:02.916Z,2.17
2017-08-20T15:30:31.269Z,1.67
2017-08-20T15:32:59.564Z,2.20
2017-08-20T15:35:29.192Z,1.73
2017-08-20T15:37:57.522Z,2.00
2017-08-20T15:40:25.882Z,2.30
2017-08-20T15:42:55.276Z,1.70
2017-08-20T15:45:25.102Z,2.10
2017-08-20T15:47:53.373Z,1.67
2017-08-20T15:50:22.040Z,1.57
2017-08-20T15:52:51.511Z,1.80
2017-08-20T15:55:21.571Z,2.00
2017-08-20T15:57:51.406Z,2.83
2017-08-20T16:00:20.682Z,2.33
2017-08-20T16:02:48.986Z,2.40
2017-08-20T16:05:17.592Z,1.80
2017-08-20T16:07:48.850Z,2.00
2017-08-20T16:10:17.754Z,2.80
2017-08-20T16:12:46.333Z,2.13
2017-08-20T16:15:15.410Z,2.23
2017-08-20T16:17:44.089Z,2.70
2017-08-20T16:20:13.198Z,2.70
2017-08-20T16:22:41.878Z,2.53
2017-08-20T16:25:10.487Z,3.30
2017-08-20T16:27:38.743Z,3.27
2017-08-20T16:30:07.052Z,3.13
2017-08-20T16:32:35.603Z,2.63
2017-08-20T16:35:03.915Z,3.43
2017-08-20T16:37:32.281Z,3.73
2017-08-20T16:40:00.883Z,3.60
2017-08-20T16:42:29.183Z,3.60
2017-08-20T16:44:57.512Z,3.53
2017-08-20T16:47:26.488Z,6.70
2017-08-20T16:49:54.826Z,5.90
2017-08-20T16:52:23.165Z,5.87
2017-08-20T16:54:53.221Z,5.73
2017-08-20T16:57:22.534Z,5.73
2017-08-20T16:59:50.832Z,7.67
2017-08-20T17:02:19.509Z,6.30
2017-08-20T17:04:47.804Z,5.90
2017-08-20T17:07:17.324Z,6.40
2017-08-20T17:09:47.825Z,6.43
2017-08-20T17:12:16.134Z,5.73
2017-08-20T17:14:45.224Z,4.83
2017-08-20T17:17:14.311Z,6.23
2017-08-20T17:19:42.846Z,5.23
2017-08-20T17:22:11.383Z,5.30
2017-08-20T17:24:40.611Z,4.27
2017-08-20T17:27:08.932Z,4.97
2017-08-20T17:29:37.255Z,4.23
2017-08-20T17:32:06.214Z,4.90
2017-08-20T17:34:36.437Z,4.30
2017-08-20T17:37:07.221Z,3.80
2017-08-20T17:39:37.213Z,4.37
2017-08-20T17:42:07.171Z,4.83
2017-08-20T17:44:36.684Z,4.53
2017-08-20T17:47:07.118Z,4.10
2017-08-20T17:49:37.336Z,5.10
2017-08-20T17:52:07.232Z,3.50
2017-08-20T17:54:37.076Z,5.43
2017-08-20T17:57:08.292Z,4.80
2017-08-20T17:59:37.792Z,4.00
2017-08-20T18:02:07.985Z,4.30
2017-08-20T18:04:38.246Z,4.00
2017-08-20T18:07:08.487Z,5.60
2017-08-20T18:09:38.342Z,4.40
2017-08-20T18:12:08.152Z,5.23
2017-08-20T18:14:37.696Z,4.80
2017-08-20T18:17:07.279Z,4.80
2017-08-20T18:19:39.060Z,6.30
2017-08-20T18:22:08.981Z,4.07
2017-08-20T18:24:39.077Z,5.07
2017-08-20T18:27:08.623Z,4.60
2017-08-20T18:29:38.146Z,4.60
2017-08-20T18:32:07.697Z,4.97
2017-08-20T18:34:37.493Z,4.40
2017-08-20T18:37:07.386Z,5.30
2017-08-20T18:39:37.253Z,4.87
2017-08-20T18:42:06.778Z,4.97
2017-08-20T18:44:37.399Z,5.23
2017-08-20T18:47:06.953Z,3.93
2017-08-20T18:49:36.486Z,4.93
2017-08-20T18:52:07.712Z,4.20
2017-08-20T18:54:37.221Z,4.63
2017-08-20T18:57:07.182Z,4.17
2017-08-20T18:59:36.785Z,3.40
2017-08-20T19:02:06.317Z,4.50
2017-08-20T19:04:35.842Z,3.00
2017-08-20T19:07:05.779Z,6.17
2017-08-20T19:09:36.139Z,3.13
2017-08-20T19:12:06.482Z,3.00
2017-08-20T19:14:36.314Z,3.67
2017-08-20T19:17:05.844Z,3.37
2017-08-20T19:19:36.459Z,3.73
2017-08-20T19:22:06.010Z,2.73
2017-08-20T19:24:35.690Z,2.57
2017-08-20T19:27:06.046Z,2.60
2017-08-20T19:29:35.568Z,2.43
2017-08-20T19:32:05.467Z,1.70
2017-08-20T19:34:36.220Z,2.10
2017-08-20T19:37:06.093Z,2.20
2017-08-20T19:39:35.688Z,2.10
2017-08-20T19:42:06.612Z,2.30
2017-08-20T19:44:36.143Z,2.00
2017-08-20T19:47:07.051Z,2.53
2017-08-20T19:49:37.249Z,2.43
2017-08-20T19:52:07.686Z,3.00
2017-08-20T19:54:37.265Z,2.30
2017-08-20T19:57:06.812Z,2.20
2017-08-20T19:59:36.655Z,2.63
2017-08-20T20:02:06.147Z,2.70
2017-08-20T20:04:36.007Z,2.50
2017-08-20T20:07:06.049Z,2.40
2017-08-20T20:09:35.540Z,2.37
2017-08-20T20:12:05.094Z,2.57
2017-08-20T20:14:34.608Z,2.33
2017-08-20T20:17:05.088Z,2.90
2017-08-20T20:19:34.643Z,2.30
2017-08-20T20:22:04.147Z,2.90
2017-08-20T20:24:33.781Z,2.10
2017-08-20T20:27:03.654Z,2.80
2017-08-20T20:29:33.587Z,2.40
2017-08-20T20:32:03.147Z,2.20
2017-08-20T20:34:32.997Z,2.43
2017-08-20T20:37:02.829Z,2.20
2017-08-20T20:39:32.365Z,2.50
2017-08-20T20:42:02.676Z,2.67
2017-08-20T20:44:32.219Z,2.37
2017-08-20T20:47:02.067Z,2.43
2017-08-20T20:49:31.600Z,2.47
2017-08-20T20:52:01.127Z,2.10
2017-08-20T20:54:30.718Z,2.93
2017-08-20T20:57:00.249Z,2.47
2017-08-20T20:59:30.903Z,2.60
2017-08-20T21:02:00.440Z,2.30
2017-08-20T21:04:30.261Z,2.67
2017-08-20T21:06:59.780Z,2.80
2017-08-20T21:09:30.227Z,2.03
2017-08-20T21:11:59.787Z,3.13
2017-08-20T21:14:29.300Z,2.80
2017-08-20T21:16:58.855Z,3.03
2017-08-20T21:19:28.389Z,2.30
2017-08-20T21:21:58.663Z,3.10
2017-08-20T21:24:28.300Z,2.17
2017-08-20T21:26:58.163Z,2.70
2017-08-20T21:29:28.047Z,2.10
2017-08-20T21:31:57.617Z,1.90
2017-08-20T21:34:27.157Z,2.33
2017-08-20T21:36:57.129Z,2.27
2017-08-20T21:39:26.701Z,2.50
2017-08-20T21:41:56.657Z,4.33
2017-08-20T21:44:26.143Z,2.13
2017-08-20T21:46:55.703Z,2.00
2017-08-20T21:49:25.233Z,2.40
2017-08-20T21:51:54.786Z,2.10
2017-08-20T21:54:24.676Z,2.80
2017-08-20T21:56:54.199Z,2.50
2017-08-20T21:59:24.242Z,3.03
2017-08-20T22:01:53.780Z,2.63
2017-08-20T22:04:23.956Z,2.90
2017-08-20T22:06:53.846Z,2.17
2017-08-20T22:09:25.021Z,2.30
2017-08-20T22:11:54.925Z,2.20
2017-08-20T22:14:25.796Z,2.40
2017-08-20T22:16:55.601Z,2.50
2017-08-20T22:19:25.165Z,1.80
2017-08-20T22:21:54.674Z,2.47
2017-08-20T22:24:24.912Z,2.60
2017-08-20T22:26:54.425Z,2.30
2017-08-20T22:29:24.247Z,2.20
2017-08-20T22:31:54.068Z,2.07
2017-08-20T22:34:24.199Z,2.70
2017-08-20T22:36:53.735Z,2.30
2017-08-20T22:39:24.535Z,1.97
2017-08-20T22:41:55.300Z,2.10
2017-08-20T22:44:25.193Z,2.43
2017-08-20T22:46:54.866Z,2.13
2017-08-20T22:49:24.947Z,2.37
2017-08-20T22:51:54.814Z,3.07
2017-08-20T22:54:24.749Z,3.10
2017-08-20T22:56:54.263Z,2.53
2017-08-20T22:59:24.059Z,2.97
2017-08-20T23:01:53.574Z,2.63
2017-08-20T23:04:23.090Z,2.73
2017-08-20T23:06:52.904Z,3.00
2017-08-20T23:09:22.579Z,3.17
2017-08-20T23:11:52.133Z,2.97
2017-08-20T23:14:22.054Z,3.03
2017-08-20T23:16:51.962Z,2.80
2017-08-20T23:19:21.571Z,2.87
2017-08-20T23:21:51.141Z,2.60
2017-08-20T23:24:20.676Z,3.30
2017-08-20T23:26:51.170Z,4.83
2017-08-20T23:29:20.764Z,3.23
2017-08-20T23:31:50.300Z,2.87
2017-08-20T23:34:20.487Z,4.20
2017-08-20T23:36:49.986Z,2.83
2017-08-20T23:39:20.512Z,2.63
2017-08-20T23:41:50.653Z,3.30
2017-08-20T23:44:20.292Z,3.37
2017-08-20T23:46:50.189Z,3.10
2017-08-20T23:49:19.711Z,3.20
2017-08-20T23:51:50.780Z,3.20
2017-08-20T23:54:20.308Z,2.93
2017-08-20T23:56:50.498Z,2.57
2017-08-20T23:59:20.065Z,3.97
